createdAt,value
2018-04-16T00:00:38.396Z,1000.30
2018-04-16T00:01:38.255Z,1000.28
2018-04-16T00:02:38.343Z,1000.26
2018-04-16T00:03:38.311Z,1000.22
2018-04-16T00:04:38.344Z,1000.23
2018-04-16T00:05:38.275Z,1000.23
2018-04-16T00:06:38.391Z,1000.22
2018-04-16T00:07:38.306Z,1000.20
2018-04-16T00:08:38.312Z,1000.23
2018-04-16T00:09:38.343Z,1000.21
2018-04-16T00:10:38.340Z,1000.19
2018-04-16T00:11:38.266Z,1000.18
2018-04-16T00:12:38.305Z,1000.21
2018-04-16T00:13:38.265Z,1000.16
2018-04-16T00:14:38.347Z,1000.19
2018-04-16T00:15:38.312Z,1000.20
2018-04-16T00:16:38.270Z,1000.22
2018-04-16T00:17:38.317Z,1000.19
2018-04-16T00:18:38.347Z,1000.16
2018-04-16T00:19:38.366Z,1000.19
2018-04-16T00:20:38.380Z,1000.16
2018-04-16T00:21:38.308Z,1000.12
2018-04-16T00:22:38.355Z,1000.16
2018-04-16T00:23:38.308Z,1000.18
2018-04-16T00:24:38.344Z,1000.21
2018-04-16T00:25:38.256Z,1000.22
2018-04-16T00:26:38.329Z,1000.27
2018-04-16T00:27:38.372Z,1000.27
2018-04-16T00:28:38.322Z,1000.33
2018-04-16T00:29:38.291Z,1000.34
2018-04-16T00:30:38.312Z,1000.37
2018-04-16T00:31:38.380Z,1000.35
2018-04-16T00:32:38.277Z,1000.42
2018-04-16T00:33:38.351Z,1000.44
2018-04-16T00:34:38.320Z,1000.45
2018-04-16T00:35:38.330Z,1000.47
2018-04-16T00:36:38.358Z,1000.51
2018-04-16T00:37:38.354Z,1000.46
2018-04-16T00:38:38.422Z,1000.47
2018-04-16T00:39:38.353Z,1000.46
2018-04-16T00:40:38.384Z,1000.42
2018-04-16T00:41:38.366Z,1000.42
2018-04-16T00:42:38.268Z,1000.38
2018-04-16T00:43:38.321Z,1000.38
2018-04-16T00:44:38.264Z,1000.32
2018-04-16T00:45:38.324Z,1000.37
2018-04-16T00:46:38.389Z,1000.42
2018-04-16T00:47:38.384Z,1000.35
2018-04-16T00:48:38.371Z,1000.43
2018-04-16T00:49:38.291Z,1000.41
2018-04-16T00:50:38.341Z,1000.39
2018-04-16T00:51:38.388Z,1000.39
2018-04-16T00:52:38.332Z,1000.43
2018-04-16T00:53:38.389Z,1000.44
2018-04-16T00:54:38.369Z,1000.50
2018-04-16T00:55:38.304Z,1000.43
2018-04-16T00:56:38.366Z,1000.45
2018-04-16T00:57:38.286Z,1000.45
2018-04-16T00:58:38.361Z,1000.52
2018-04-16T00:59:38.286Z,1000.50
2018-04-16T01:00:38.360Z,1000.50
2018-04-16T01:01:38.290Z,1000.54
2018-04-16T01:02:38.365Z,1000.53
2018-04-16T01:03:38.311Z,1000.56
2018-04-16T01:04:38.363Z,1000.57
2018-04-16T01:05:38.297Z,1000.58
2018-04-16T01:06:38.366Z,1000.60
2018-04-16T01:07:38.294Z,1000.59
2018-04-16T01:08:38.369Z,1000.56
2018-04-16T01:09:38.301Z,1000.52
2018-04-16T01:10:38.415Z,1000.50
2018-04-16T01:11:38.297Z,1000.48
2018-04-16T01:12:38.368Z,1000.49
2018-04-16T01:13:38.299Z,1000.52
2018-04-16T01:14:38.370Z,1000.55
2018-04-16T01:15:38.300Z,1000.54
2018-04-16T01:16:38.374Z,1000.55
2018-04-16T01:17:38.308Z,1000.58
2018-04-16T01:18:38.300Z,1000.57
2018-04-16T01:19:38.438Z,1000.55
2018-04-16T01:20:38.385Z,1000.55
2018-04-16T01:21:38.288Z,1000.54
2018-04-16T01:22:38.384Z,1000.55
2018-04-16T01:23:38.439Z,1000.54
2018-04-16T01:24:38.414Z,1000.53
2018-04-16T01:25:38.313Z,1000.57
2018-04-16T01:26:38.321Z,1000.62
2018-04-16T01:27:38.414Z,1000.58
2018-04-16T01:28:38.309Z,1000.58
2018-04-16T01:29:38.381Z,1000.59
2018-04-16T01:30:38.312Z,1000.53
2018-04-16T01:31:38.387Z,1000.48
2018-04-16T01:32:38.309Z,1000.51
2018-04-16T01:33:38.382Z,1000.46
2018-04-16T01:34:38.309Z,1000.47
2018-04-16T01:35:38.387Z,1000.45
2018-04-16T01:36:38.390Z,1000.44
2018-04-16T01:37:38.314Z,1000.49
2018-04-16T01:38:38.354Z,1000.48
2018-04-16T01:39:38.324Z,1000.51
2018-04-16T01:40:38.416Z,1000.52
2018-04-16T01:41:38.399Z,1000.50
2018-04-16T01:42:38.373Z,1000.49
2018-04-16T01:43:38.393Z,1000.48
2018-04-16T01:44:38.395Z,1000.44
2018-04-16T01:45:38.383Z,1000.48
2018-04-16T01:46:38.320Z,1000.47
2018-04-16T01:47:38.398Z,1000.40
2018-04-16T01:48:38.329Z,1000.40
2018-04-16T01:49:38.407Z,1000.38
2018-04-16T01:50:38.346Z,1000.36
2018-04-16T01:51:38.405Z,1000.37
2018-04-16T01:52:38.333Z,1000.37
2018-04-16T01:53:38.406Z,1000.35
2018-04-16T01:54:38.411Z,1000.29
2018-04-16T01:55:38.338Z,1000.29
2018-04-16T01:56:38.337Z,1000.28
2018-04-16T01:57:38.410Z,1000.31
2018-04-16T01:58:38.466Z,1000.28
2018-04-16T01:59:38.327Z,1000.30
2018-04-16T02:00:38.469Z,1000.33
2018-04-16T02:01:38.427Z,1000.27
2018-04-16T02:02:38.414Z,1000.29
2018-04-16T02:03:38.428Z,1000.32
2018-04-16T02:04:38.390Z,1000.30
2018-04-16T02:05:38.328Z,1000.35
2018-04-16T02:06:38.472Z,1000.35
2018-04-16T02:07:38.336Z,1000.32
2018-04-16T02:08:38.447Z,1000.32
2018-04-16T02:09:38.375Z,1000.36
2018-04-16T02:10:38.445Z,1000.36
2018-04-16T02:11:38.336Z,1000.34
2018-04-16T02:12:38.444Z,1000.38
2018-04-16T02:13:38.430Z,1000.39
2018-04-16T02:14:38.415Z,1000.42
2018-04-16T02:15:38.440Z,1000.48
2018-04-16T02:16:38.430Z,1000.51
2018-04-16T02:17:38.426Z,1000.55
2018-04-16T02:18:38.335Z,1000.55
2018-04-16T02:19:38.421Z,1000.55
2018-04-16T02:20:38.321Z,1000.54
2018-04-16T02:21:38.501Z,1000.55
2018-04-16T02:22:38.443Z,1000.54
2018-04-16T02:23:38.338Z,1000.55
2018-04-16T02:24:38.353Z,1000.56
2018-04-16T02:25:38.357Z,1000.59
2018-04-16T02:26:38.429Z,1000.52
2018-04-16T02:27:38.398Z,1000.47
2018-04-16T02:28:38.433Z,1000.44
2018-04-16T02:29:38.354Z,1000.39
2018-04-16T02:30:38.356Z,1000.36
2018-04-16T02:31:38.354Z,1000.35
2018-04-16T02:32:38.360Z,1000.36
2018-04-16T02:33:38.435Z,1000.36
2018-04-16T02:34:38.363Z,1000.37
2018-04-16T02:35:38.359Z,1000.33
2018-04-16T02:36:38.360Z,1000.32
2018-04-16T02:37:38.329Z,1000.29
2018-04-16T02:38:38.406Z,1000.28
2018-04-16T02:39:38.404Z,1000.33
2018-04-16T02:40:38.529Z,1000.37
2018-04-16T02:41:38.457Z,1000.36
2018-04-16T02:42:38.457Z,1000.44
2018-04-16T02:43:38.404Z,1000.46
2018-04-16T02:44:38.442Z,1000.45
2018-04-16T02:45:38.434Z,1000.42
2018-04-16T02:46:38.443Z,1000.42
2018-04-16T02:47:38.410Z,1000.44
2018-04-16T02:48:38.358Z,1000.43
2018-04-16T02:49:38.466Z,1000.45
2018-04-16T02:50:38.431Z,1000.43
2018-04-16T02:51:38.365Z,1000.49
2018-04-16T02:52:38.435Z,1000.46
2018-04-16T02:53:38.366Z,1000.47
2018-04-16T02:54:38.433Z,1000.46
2018-04-16T02:55:38.438Z,1000.45
2018-04-16T02:56:38.366Z,1000.47
2018-04-16T02:57:38.443Z,1000.49
2018-04-16T02:58:38.367Z,1000.50
2018-04-16T02:59:38.443Z,1000.51
2018-04-16T03:00:38.391Z,1000.51
2018-04-16T03:01:38.373Z,1000.54
2018-04-16T03:02:38.439Z,1000.53
2018-04-16T03:03:38.444Z,1000.54
2018-04-16T03:04:38.366Z,1000.56
2018-04-16T03:05:38.440Z,1000.56
2018-04-16T03:06:38.365Z,1000.59
2018-04-16T03:07:38.456Z,1000.58
2018-04-16T03:08:38.399Z,1000.60
2018-04-16T03:09:38.381Z,1000.55
2018-04-16T03:10:38.455Z,1000.52
2018-04-16T03:11:38.462Z,1000.51
2018-04-16T03:12:38.350Z,1000.55
2018-04-16T03:13:38.486Z,1000.55
2018-04-16T03:14:38.350Z,1000.55
2018-04-16T03:15:38.387Z,1000.54
2018-04-16T03:16:38.354Z,1000.52
2018-04-16T03:17:38.461Z,1000.55
2018-04-16T03:18:38.404Z,1000.52
2018-04-16T03:19:38.387Z,1000.55
2018-04-16T03:20:38.405Z,1000.57
2018-04-16T03:21:38.465Z,1000.63
2018-04-16T03:22:38.405Z,1000.64
2018-04-16T03:23:38.467Z,1000.67
2018-04-16T03:24:38.466Z,1000.67
2018-04-16T03:25:38.405Z,1000.67
2018-04-16T03:26:38.394Z,1000.72
2018-04-16T03:27:38.355Z,1000.73
2018-04-16T03:28:38.460Z,1000.70
2018-04-16T03:29:38.460Z,1000.71
2018-04-16T03:30:38.432Z,1000.71
2018-04-16T03:31:38.428Z,1000.69
2018-04-16T03:32:38.370Z,1000.72
2018-04-16T03:33:38.473Z,1000.68
2018-04-16T03:34:38.445Z,1000.71
2018-04-16T03:35:38.410Z,1000.75
2018-04-16T03:36:38.467Z,1000.76
2018-04-16T03:37:38.389Z,1000.75
2018-04-16T03:38:38.412Z,1000.81
2018-04-16T03:39:38.466Z,1000.81
2018-04-16T03:40:38.398Z,1000.86
2018-04-16T03:41:38.398Z,1000.81
2018-04-16T03:42:38.467Z,1000.84
2018-04-16T03:43:38.393Z,1000.80
2018-04-16T03:44:38.468Z,1000.81
2018-04-16T03:45:38.427Z,1000.81
2018-04-16T03:46:38.424Z,1000.82
2018-04-16T03:47:38.467Z,1000.78
2018-04-16T03:48:38.479Z,1000.82
2018-04-16T03:49:38.484Z,1000.83
2018-04-16T03:50:38.484Z,1000.85
2018-04-16T03:51:38.480Z,1000.84
2018-04-16T03:52:38.484Z,1000.88
2018-04-16T03:53:38.409Z,1000.86
2018-04-16T03:54:38.416Z,1000.83
2018-04-16T03:55:38.417Z,1000.91
2018-04-16T03:56:38.509Z,1000.92
2018-04-16T03:57:38.411Z,1000.98
2018-04-16T03:58:38.479Z,1000.99
2018-04-16T03:59:38.388Z,1000.93
2018-04-16T04:00:38.483Z,1000.94
2018-04-16T04:01:38.480Z,1000.91
2018-04-16T04:02:38.557Z,1000.89
2018-04-16T04:03:38.542Z,1000.90
2018-04-16T04:04:38.509Z,1000.88
2018-04-16T04:05:38.459Z,1000.94
2018-04-16T04:06:38.425Z,1000.96
2018-04-16T04:07:38.519Z,1001.00
2018-04-16T04:08:38.512Z,1001.00
2018-04-16T04:09:38.465Z,1000.98
2018-04-16T04:10:38.489Z,1000.98
2018-04-16T04:11:38.485Z,1000.98
2018-04-16T04:12:38.409Z,1000.97
2018-04-16T04:13:38.462Z,1001.01
2018-04-16T04:14:38.530Z,1001.00
2018-04-16T04:15:38.411Z,1001.00
2018-04-16T04:16:38.461Z,1000.99
2018-04-16T04:17:38.461Z,1001.00
2018-04-16T04:18:38.462Z,1000.98
2018-04-16T04:19:38.433Z,1000.97
2018-04-16T04:20:38.521Z,1000.99
2018-04-16T04:21:38.465Z,1001.01
2018-04-16T04:22:38.468Z,1001.02
2018-04-16T04:23:38.541Z,1001.05
2018-04-16T04:24:38.414Z,1001.03
2018-04-16T04:25:38.495Z,1001.03
2018-04-16T04:26:38.534Z,1001.02
2018-04-16T04:27:38.468Z,1001.04
2018-04-16T04:28:38.475Z,1001.10
2018-04-16T04:29:38.425Z,1001.15
2018-04-16T04:30:38.437Z,1001.20
2018-04-16T04:31:38.507Z,1001.22
2018-04-16T04:32:38.539Z,1001.21
2018-04-16T04:33:38.562Z,1001.17
2018-04-16T04:34:38.469Z,1001.15
2018-04-16T04:35:38.432Z,1001.15
2018-04-16T04:36:38.509Z,1001.14
2018-04-16T04:37:38.571Z,1001.18
2018-04-16T04:38:38.451Z,1001.21
2018-04-16T04:39:38.512Z,1001.22
2018-04-16T04:40:38.452Z,1001.24
2018-04-16T04:41:38.518Z,1001.29
2018-04-16T04:42:38.516Z,1001.25
2018-04-16T04:43:38.446Z,1001.27
2018-04-16T04:44:38.443Z,1001.24
2018-04-16T04:45:38.441Z,1001.20
2018-04-16T04:46:38.526Z,1001.19
2018-04-16T04:47:38.410Z,1001.19
2018-04-16T04:48:38.453Z,1001.28
2018-04-16T04:49:38.407Z,1001.31
2018-04-16T04:50:38.411Z,1001.33
2018-04-16T04:51:38.421Z,1001.37
2018-04-16T04:52:38.452Z,1001.32
2018-04-16T04:53:38.411Z,1001.28
2018-04-16T04:54:38.500Z,1001.25
2018-04-16T04:55:38.423Z,1001.24
2018-04-16T04:56:38.500Z,1001.24
2018-04-16T04:57:38.449Z,1001.25
2018-04-16T04:58:38.561Z,1001.35
2018-04-16T04:59:38.546Z,1001.44
2018-04-16T05:00:38.524Z,1001.44
2018-04-16T05:01:38.450Z,1001.46
2018-04-16T05:02:38.529Z,1001.43
2018-04-16T05:03:38.531Z,1001.44
2018-04-16T05:04:38.549Z,1001.39
2018-04-16T05:05:38.543Z,1001.40
2018-04-16T05:06:38.555Z,1001.39
2018-04-16T05:07:38.505Z,1001.40
2018-04-16T05:08:38.473Z,1001.44
2018-04-16T05:09:38.442Z,1001.46
2018-04-16T05:10:38.432Z,1001.51
2018-04-16T05:11:38.385Z,1001.48
2018-04-16T05:12:38.484Z,1001.49
2018-04-16T05:13:38.434Z,1001.49
2018-04-16T05:14:38.479Z,1001.53
2018-04-16T05:15:38.478Z,1001.55
2018-04-16T05:16:38.387Z,1001.52
2018-04-16T05:17:38.485Z,1001.52
2018-04-16T05:18:38.532Z,1001.53
2018-04-16T05:19:38.493Z,1001.56
2018-04-16T05:20:38.521Z,1001.62
2018-04-16T05:21:38.438Z,1001.64
2018-04-16T05:22:38.519Z,1001.63
2018-04-16T05:23:38.572Z,1001.57
2018-04-16T05:24:38.523Z,1001.57
2018-04-16T05:25:38.437Z,1001.55
2018-04-16T05:26:38.483Z,1001.55
2018-04-16T05:27:38.577Z,1001.52
2018-04-16T05:28:38.526Z,1001.53
2018-04-16T05:29:38.530Z,1001.58
2018-04-16T05:30:38.456Z,1001.57
2018-04-16T05:31:38.444Z,1001.57
2018-04-16T05:32:38.529Z,1001.55
2018-04-16T05:33:38.533Z,1001.56
2018-04-16T05:34:38.449Z,1001.58
2018-04-16T05:35:38.536Z,1001.55
2018-04-16T05:36:38.457Z,1001.57
2018-04-16T05:37:38.537Z,1001.55
2018-04-16T05:38:38.508Z,1001.58
2018-04-16T05:39:38.546Z,1001.58
2018-04-16T05:40:38.514Z,1001.58
2018-04-16T05:41:38.584Z,1001.59
2018-04-16T05:42:38.579Z,1001.62
2018-04-16T05:43:38.542Z,1001.63
2018-04-16T05:44:38.539Z,1001.65
2018-04-16T05:45:38.552Z,1001.71
2018-04-16T05:46:38.508Z,1001.66
2018-04-16T05:47:38.548Z,1001.75
2018-04-16T05:48:38.488Z,1001.79
2018-04-16T05:49:38.506Z,1001.81
2018-04-16T05:50:38.544Z,1001.82
2018-04-16T05:51:38.539Z,1001.84
2018-04-16T05:52:38.423Z,1001.86
2018-04-16T05:53:38.543Z,1001.88
2018-04-16T05:54:38.543Z,1001.90
2018-04-16T05:55:38.548Z,1001.91
2018-04-16T05:56:38.543Z,1001.90
2018-04-16T05:57:38.460Z,1001.93
2018-04-16T05:58:38.550Z,1001.94
2018-04-16T05:59:38.515Z,1001.97
2018-04-16T06:00:38.490Z,1001.97
2018-04-16T06:01:38.460Z,1001.97
2018-04-16T06:02:38.466Z,1002.01
2018-04-16T06:03:38.553Z,1001.99
2018-04-16T06:04:38.479Z,1002.07
2018-04-16T06:05:38.511Z,1002.07
2018-04-16T06:06:38.526Z,1002.09
2018-04-16T06:07:38.467Z,1002.07
2018-04-16T06:08:38.595Z,1002.06
2018-04-16T06:09:38.570Z,1002.10
2018-04-16T06:10:38.525Z,1002.10
2018-04-16T06:11:38.491Z,1002.09
2018-04-16T06:12:38.526Z,1002.09
2018-04-16T06:13:38.623Z,1002.12
2018-04-16T06:14:38.507Z,1002.13
2018-04-16T06:15:38.507Z,1002.17
2018-04-16T06:16:38.503Z,1002.18
2018-04-16T06:17:38.527Z,1002.18
2018-04-16T06:18:38.589Z,1002.20
2018-04-16T06:19:38.542Z,1002.16
2018-04-16T06:20:38.507Z,1002.22
2018-04-16T06:21:38.493Z,1002.22
2018-04-16T06:22:38.545Z,1002.19
2018-04-16T06:23:38.595Z,1002.22
2018-04-16T06:24:38.534Z,1002.24
2018-04-16T06:25:38.542Z,1002.23
2018-04-16T06:26:38.572Z,1002.29
2018-04-16T06:27:38.550Z,1002.31
2018-04-16T06:28:38.600Z,1002.27
2018-04-16T06:29:38.584Z,1002.33
2018-04-16T06:30:38.600Z,1002.32
2018-04-16T06:31:38.498Z,1002.33
2018-04-16T06:32:38.512Z,1002.35
2018-04-16T06:33:38.479Z,1002.40
2018-04-16T06:34:38.493Z,1002.38
2018-04-16T06:35:38.584Z,1002.45
2018-04-16T06:36:38.634Z,1002.43
2018-04-16T06:37:38.504Z,1002.45
2018-04-16T06:38:38.518Z,1002.44
2018-04-16T06:39:38.554Z,1002.47
2018-04-16T06:40:38.455Z,1002.50
2018-04-16T06:41:38.544Z,1002.51
2018-04-16T06:42:38.482Z,1002.54
2018-04-16T06:43:38.535Z,1002.55
2018-04-16T06:44:38.562Z,1002.59
2018-04-16T06:45:38.564Z,1002.58
2018-04-16T06:46:38.539Z,1002.56
2018-04-16T06:47:38.588Z,1002.59
2018-04-16T06:48:38.567Z,1002.59
2018-04-16T06:49:38.478Z,1002.64
2018-04-16T06:50:38.561Z,1002.66
2018-04-16T06:51:38.519Z,1002.64
2018-04-16T06:52:38.639Z,1002.66
2018-04-16T06:53:38.463Z,1002.66
2018-04-16T06:54:38.573Z,1002.68
2018-04-16T06:55:38.490Z,1002.67
2018-04-16T06:56:38.575Z,1002.65
2018-04-16T06:57:38.487Z,1002.64
2018-04-16T06:58:38.603Z,1002.62
2018-04-16T06:59:38.590Z,1002.63
2018-04-16T07:00:38.523Z,1002.64
2018-04-16T07:01:38.484Z,1002.65
2018-04-16T07:02:38.525Z,1002.70
2018-04-16T07:03:38.598Z,1002.69
2018-04-16T07:04:38.529Z,1002.72
2018-04-16T07:05:38.601Z,1002.67
2018-04-16T07:06:38.526Z,1002.70
2018-04-16T07:07:38.529Z,1002.72
2018-04-16T07:08:38.558Z,1002.72
2018-04-16T07:09:38.610Z,1002.70
2018-04-16T07:10:38.625Z,1002.68
2018-04-16T07:11:38.502Z,1002.67
2018-04-16T07:12:38.624Z,1002.65
2018-04-16T07:13:38.575Z,1002.68
2018-04-16T07:14:38.507Z,1002.68
2018-04-16T07:15:38.617Z,1002.67
2018-04-16T07:16:38.657Z,1002.70
2018-04-16T07:17:38.574Z,1002.67
2018-04-16T07:18:38.561Z,1002.70
2018-04-16T07:19:38.633Z,1002.70
2018-04-16T07:20:38.602Z,1002.68
2018-04-16T07:21:38.630Z,1002.69
2018-04-16T07:22:38.570Z,1002.68
2018-04-16T07:23:38.573Z,1002.67
2018-04-16T07:24:38.608Z,1002.69
2018-04-16T07:25:38.542Z,1002.66
2018-04-16T07:26:38.649Z,1002.68
2018-04-16T07:27:38.544Z,1002.73
2018-04-16T07:28:38.531Z,1002.75
2018-04-16T07:29:38.579Z,1002.75
2018-04-16T07:30:38.647Z,1002.73
2018-04-16T07:31:38.583Z,1002.78
2018-04-16T07:32:38.623Z,1002.82
2018-04-16T07:33:38.593Z,1002.84
2018-04-16T07:34:38.554Z,1002.86
2018-04-16T07:35:38.646Z,1002.86
2018-04-16T07:36:38.652Z,1002.86
2018-04-16T07:37:38.582Z,1002.87
2018-04-16T07:38:38.543Z,1002.86
2018-04-16T07:39:38.546Z,1002.93
2018-04-16T07:40:38.548Z,1002.89
2018-04-16T07:41:38.624Z,1002.90
2018-04-16T07:42:38.572Z,1002.89
2018-04-16T07:43:38.517Z,1002.91
2018-04-16T07:44:38.559Z,1002.90
2018-04-16T07:45:38.552Z,1002.89
2018-04-16T07:46:38.551Z,1002.92
2018-04-16T07:47:38.625Z,1002.96
2018-04-16T07:48:38.551Z,1002.97
2018-04-16T07:49:38.589Z,1003.00
2018-04-16T07:50:38.547Z,1003.02
2018-04-16T07:51:38.620Z,1003.07
2018-04-16T07:52:38.592Z,1003.08
2018-04-16T07:53:38.652Z,1003.10
2018-04-16T07:54:38.690Z,1003.10
2018-04-16T07:55:38.596Z,1003.13
2018-04-16T07:56:38.664Z,1003.11
2018-04-16T07:57:38.611Z,1003.15
2018-04-16T07:58:38.668Z,1003.17
2018-04-16T07:59:38.551Z,1003.19
2018-04-16T08:00:38.659Z,1003.18
2018-04-16T08:01:38.558Z,1003.21
2018-04-16T08:02:38.654Z,1003.21
2018-04-16T08:03:38.660Z,1003.20
2018-04-16T08:04:38.597Z,1003.20
2018-04-16T08:05:38.652Z,1003.16
2018-04-16T08:06:38.670Z,1003.16
2018-04-16T08:07:38.692Z,1003.17
2018-04-16T08:08:38.561Z,1003.20
2018-04-16T08:09:38.636Z,1003.20
2018-04-16T08:10:38.714Z,1003.20
2018-04-16T08:11:38.637Z,1003.23
2018-04-16T08:12:38.556Z,1003.22
2018-04-16T08:13:38.541Z,1003.23
2018-04-16T08:14:38.560Z,1003.16
2018-04-16T08:15:38.637Z,1003.18
2018-04-16T08:16:38.675Z,1003.15
2018-04-16T08:17:38.663Z,1003.19
2018-04-16T08:18:38.675Z,1003.18
2018-04-16T08:19:38.563Z,1003.18
2018-04-16T08:20:38.581Z,1003.15
2018-04-16T08:21:38.550Z,1003.18
2018-04-16T08:22:38.675Z,1003.12
2018-04-16T08:23:38.620Z,1003.10
2018-04-16T08:24:38.607Z,1003.09
2018-04-16T08:25:38.613Z,1003.12
2018-04-16T08:26:38.606Z,1003.12
2018-04-16T08:27:38.648Z,1003.13
2018-04-16T08:28:38.629Z,1003.14
2018-04-16T08:29:38.691Z,1003.10
2018-04-16T08:30:38.678Z,1003.04
2018-04-16T08:31:38.676Z,1003.04
2018-04-16T08:32:38.679Z,1003.04
2018-04-16T08:33:38.567Z,1003.02
2018-04-16T08:34:38.557Z,1003.02
2018-04-16T08:35:38.574Z,1003.04
2018-04-16T08:36:38.692Z,1003.01
2018-04-16T08:37:38.691Z,1003.01
2018-04-16T08:38:38.693Z,1003.04
2018-04-16T08:39:38.550Z,1003.06
2018-04-16T08:40:38.585Z,1003.08
2018-04-16T08:41:38.617Z,1003.12
2018-04-16T08:42:38.552Z,1003.10
2018-04-16T08:43:38.643Z,1003.11
2018-04-16T08:44:38.551Z,1003.09
2018-04-16T08:45:38.559Z,1003.12
2018-04-16T08:46:38.525Z,1003.12
2018-04-16T08:47:38.555Z,1003.12
2018-04-16T08:48:38.554Z,1003.06
2018-04-16T08:49:38.576Z,1003.11
2018-04-16T08:50:38.604Z,1003.07
2018-04-16T08:51:38.659Z,1003.08
2018-04-16T08:52:38.677Z,1003.14
2018-04-16T08:53:38.670Z,1003.10
2018-04-16T08:54:38.623Z,1003.09
2018-04-16T08:55:38.661Z,1003.07
2018-04-16T08:56:38.653Z,1003.08
2018-04-16T08:57:38.615Z,1003.12
2018-04-16T08:58:38.661Z,1003.13
2018-04-16T08:59:38.610Z,1003.10
2018-04-16T09:00:38.621Z,1003.11
2018-04-16T09:01:38.622Z,1003.13
2018-04-16T09:02:38.666Z,1003.12
2018-04-16T09:03:38.604Z,1003.18
2018-04-16T09:04:38.677Z,1003.16
2018-04-16T09:05:38.604Z,1003.18
2018-04-16T09:06:38.601Z,1003.18
2018-04-16T09:07:38.675Z,1003.17
2018-04-16T09:08:38.603Z,1003.17
2018-04-16T09:09:38.621Z,1003.17
2018-04-16T09:10:38.620Z,1003.21
2018-04-16T09:11:38.574Z,1003.21
2018-04-16T09:12:38.551Z,1003.22
2018-04-16T09:13:38.643Z,1003.21
2018-04-16T09:14:38.582Z,1003.19
2018-04-16T09:15:38.585Z,1003.23
2018-04-16T09:16:38.533Z,1003.20
2018-04-16T09:17:38.625Z,1003.20
2018-04-16T09:18:38.536Z,1003.24
2018-04-16T09:19:38.644Z,1003.25
2018-04-16T09:20:38.759Z,1003.22
2018-04-16T09:21:38.662Z,1003.20
2018-04-16T09:22:38.608Z,1003.20
2018-04-16T09:23:38.698Z,1003.22
2018-04-16T09:24:38.652Z,1003.21
2018-04-16T09:25:38.719Z,1003.21
2018-04-16T09:26:38.709Z,1003.18
2018-04-16T09:27:38.684Z,1003.19
2018-04-16T09:28:38.679Z,1003.17
2018-04-16T09:29:38.595Z,1003.16
2018-04-16T09:30:38.729Z,1003.16
2018-04-16T09:31:38.662Z,1003.14
2018-04-16T09:32:38.695Z,1003.16
2018-04-16T09:33:38.726Z,1003.16
2018-04-16T09:34:38.765Z,1003.12
2018-04-16T09:35:38.714Z,1003.12
2018-04-16T09:36:38.721Z,1003.14
2018-04-16T09:37:38.594Z,1003.12
2018-04-16T09:38:38.730Z,1003.10
2018-04-16T09:39:38.656Z,1003.10
2018-04-16T09:40:38.624Z,1003.13
2018-04-16T09:41:38.708Z,1003.12
2018-04-16T09:42:38.697Z,1003.11
2018-04-16T09:43:38.628Z,1003.05
2018-04-16T09:44:38.581Z,1003.07
2018-04-16T09:45:38.708Z,1003.11
2018-04-16T09:46:38.694Z,1003.06
2018-04-16T09:47:38.629Z,1003.03
2018-04-16T09:48:38.702Z,1003.08
2018-04-16T09:49:38.715Z,1003.10
2018-04-16T09:50:38.671Z,1003.06
2018-04-16T09:51:38.596Z,1003.13
2018-04-16T09:52:38.660Z,1003.12
2018-04-16T09:53:38.679Z,1003.11
2018-04-16T09:54:38.658Z,1003.09
2018-04-16T09:55:38.735Z,1003.04
2018-04-16T09:56:38.726Z,1003.08
2018-04-16T09:57:38.674Z,1003.04
2018-04-16T09:58:38.679Z,1003.07
2018-04-16T09:59:38.712Z,1003.02
2018-04-16T10:00:38.644Z,1003.02
2018-04-16T10:01:38.711Z,1003.06
2018-04-16T10:02:38.638Z,1003.01
2018-04-16T10:03:38.710Z,1003.02
2018-04-16T10:04:38.709Z,1003.07
2018-04-16T10:05:38.648Z,1003.03
2018-04-16T10:06:38.641Z,1003.04
2018-04-16T10:07:38.597Z,1003.04
2018-04-16T10:08:38.712Z,1003.04
2018-04-16T10:09:38.741Z,1002.99
2018-04-16T10:10:38.711Z,1002.99
2018-04-16T10:11:38.688Z,1002.98
2018-04-16T10:12:38.731Z,1002.99
2018-04-16T10:13:38.690Z,1003.02
2018-04-16T10:14:38.718Z,1003.03
2018-04-16T10:15:38.712Z,1002.98
2018-04-16T10:16:38.689Z,1003.00
2018-04-16T10:17:38.716Z,1002.98
2018-04-16T10:18:38.681Z,1002.98
2018-04-16T10:19:38.649Z,1002.95
2018-04-16T10:20:38.721Z,1002.94
2018-04-16T10:21:38.651Z,1002.95
2018-04-16T10:22:38.720Z,1002.97
2018-04-16T10:23:38.721Z,1002.94
2018-04-16T10:24:38.651Z,1002.98
2018-04-16T10:25:38.722Z,1002.98
2018-04-16T10:26:38.620Z,1002.96
2018-04-16T10:27:38.657Z,1002.97
2018-04-16T10:28:38.731Z,1002.97
2018-04-16T10:29:38.656Z,1003.00
2018-04-16T10:30:38.725Z,1003.03
2018-04-16T10:31:38.730Z,1003.01
2018-04-16T10:32:38.660Z,1003.05
2018-04-16T10:33:38.663Z,1003.04
2018-04-16T10:34:38.664Z,1003.06
2018-04-16T10:35:38.707Z,1003.05
2018-04-16T10:36:38.655Z,1003.02
2018-04-16T10:37:38.737Z,1003.03
2018-04-16T10:38:38.668Z,1002.99
2018-04-16T10:39:38.707Z,1003.02
2018-04-16T10:40:38.730Z,1002.95
2018-04-16T10:41:38.757Z,1002.98
2018-04-16T10:42:38.718Z,1002.94
2018-04-16T10:43:38.711Z,1002.96
2018-04-16T10:44:38.741Z,1002.94
2018-04-16T10:45:38.734Z,1002.91
2018-04-16T10:46:38.779Z,1002.96
2018-04-16T10:47:38.639Z,1002.94
2018-04-16T10:48:38.658Z,1002.88
2018-04-16T10:49:38.759Z,1002.90
2018-04-16T10:50:38.739Z,1002.92
2018-04-16T10:51:38.700Z,1002.94
2018-04-16T10:52:38.760Z,1002.98
2018-04-16T10:53:38.736Z,1002.98
2018-04-16T10:54:38.711Z,1002.97
2018-04-16T10:55:38.721Z,1002.98
2018-04-16T10:56:38.764Z,1002.96
2018-04-16T10:57:38.736Z,1002.94
2018-04-16T10:58:38.713Z,1002.95
2018-04-16T10:59:38.732Z,1003.00
2018-04-16T11:00:38.646Z,1002.99
2018-04-16T11:01:38.737Z,1003.02
2018-04-16T11:02:38.698Z,1003.01
2018-04-16T11:03:38.650Z,1002.97
2018-04-16T11:04:38.685Z,1002.99
2018-04-16T11:05:38.744Z,1003.00
2018-04-16T11:06:38.674Z,1003.02
2018-04-16T11:07:38.653Z,1003.01
2018-04-16T11:08:38.742Z,1002.99
2018-04-16T11:09:38.703Z,1003.04
2018-04-16T11:10:38.673Z,1003.00
2018-04-16T11:11:38.707Z,1003.01
2018-04-16T11:12:38.775Z,1003.04
2018-04-16T11:13:38.790Z,1002.98
2018-04-16T11:14:38.706Z,1003.03
2018-04-16T11:15:38.719Z,1003.11
2018-04-16T11:16:38.795Z,1003.08
2018-04-16T11:17:38.725Z,1003.11
2018-04-16T11:18:38.755Z,1003.06
2018-04-16T11:19:38.752Z,1003.06
2018-04-16T11:20:38.688Z,1003.03
2018-04-16T11:21:38.689Z,1003.05
2018-04-16T11:22:38.757Z,1003.06
2018-04-16T11:23:38.686Z,1003.03
2018-04-16T11:24:38.760Z,1003.09
2018-04-16T11:25:38.693Z,1003.09
2018-04-16T11:26:38.705Z,1003.10
2018-04-16T11:27:38.759Z,1003.08
2018-04-16T11:28:38.691Z,1003.10
2018-04-16T11:29:38.753Z,1003.09
2018-04-16T11:30:38.669Z,1003.13
2018-04-16T11:31:38.631Z,1003.10
2018-04-16T11:32:38.646Z,1003.12
2018-04-16T11:33:38.644Z,1003.14
2018-04-16T11:34:38.715Z,1003.16
2018-04-16T11:35:38.755Z,1003.18
2018-04-16T11:36:38.764Z,1003.14
2018-04-16T11:37:38.667Z,1003.15
2018-04-16T11:38:38.667Z,1003.11
2018-04-16T11:39:38.775Z,1003.11
2018-04-16T11:40:38.627Z,1003.09
2018-04-16T11:41:38.634Z,1003.13
2018-04-16T11:42:38.755Z,1003.12
2018-04-16T11:43:38.661Z,1003.09
2018-04-16T11:44:38.730Z,1003.10
2018-04-16T11:45:38.772Z,1003.18
2018-04-16T11:46:38.716Z,1003.14
2018-04-16T11:47:38.758Z,1003.16
2018-04-16T11:48:38.665Z,1003.16
2018-04-16T11:49:38.744Z,1003.17
2018-04-16T11:50:38.742Z,1003.22
2018-04-16T11:51:38.741Z,1003.20
2018-04-16T11:52:38.743Z,1003.21
2018-04-16T11:53:38.714Z,1003.23
2018-04-16T11:54:38.730Z,1003.23
2018-04-16T11:55:38.740Z,1003.29
2018-04-16T11:56:38.738Z,1003.22
2018-04-16T11:57:38.814Z,1003.25
2018-04-16T11:58:38.742Z,1003.27
2018-04-16T11:59:38.783Z,1003.25
2018-04-16T12:00:38.780Z,1003.29
2018-04-16T12:01:38.713Z,1003.31
2018-04-16T12:02:38.785Z,1003.33
2018-04-16T12:03:38.717Z,1003.32
2018-04-16T12:04:38.747Z,1003.34
2018-04-16T12:05:38.784Z,1003.37